Time;durP1;ratioP1;P1;durP2;ratioP2;P2;SDS_P1;SDS_P2;PMS_P1;PMS_P2;Temp;Humidity;BMP_temperature;BMP_pressure;BME280_temperature;BME280_humidity;BME280_pressure;Samples;Min_cycle;Max_cycle;Signal;HPM_P1;HPM_P2
2022/01/28 00:02:27;;;;;;;21.83;9.48;;;;;;;2.51;100.00;99896.00;5078023;28;20313;-67
2022/01/28 00:04:53;;;;;;;24.90;11.93;;;;;;;2.51;100.00;99885.59;5077572;28;20031;-67
2022/01/28 00:07:19;;;;;;;29.55;12.30;;;;;;;2.49;100.00;99886.38;5077840;28;20035;-67
2022/01/28 00:09:44;;;;;;;28.80;11.15;;;;;;;2.55;100.00;99881.38;5079912;28;20020;-67
2022/01/28 00:12:11;;;;;;;21.15;10.73;;;;;;;2.54;100.00;99884.81;5078693;28;20267;-67
2022/01/28 00:20:27;;;;;;;25.35;11.02;;;;;;;2.58;100.00;99897.97;5074748;28;20030;-67
2022/01/28 00:39:13;;;;;;;26.58;10.68;;;;;;;2.60;100.00;99917.09;5075037;28;20028;-67
2022/01/28 00:41:38;;;;;;;29.83;13.38;;;;;;;2.57;100.00;99922.19;5074722;28;20027;-67
2022/01/28 00:44:04;;;;;;;31.88;12.73;;;;;;;2.64;100.00;99924.16;5072288;28;20124;-67
2022/01/28 00:46:29;;;;;;;29.98;12.05;;;;;;;2.63;100.00;99921.50;5073417;28;20025;-67
2022/01/28 00:48:56;;;;;;;26.20;11.95;;;;;;;2.69;100.00;99927.75;5074655;28;20052;-67
2022/01/28 00:51:22;;;;;;;37.22;12.95;;;;;;;2.70;100.00;99929.53;5075758;28;20043;-67
2022/01/28 00:53:47;;;;;;;27.90;12.05;;;;;;;2.69;100.00;99935.56;5074470;28;20051;-67
2022/01/28 00:56:13;;;;;;;25.58;13.43;;;;;;;2.70;100.00;99934.75;5073449;28;20036;-67
2022/01/28 00:58:38;;;;;;;29.13;12.68;;;;;;;2.72;100.00;99938.25;5074277;28;20217;-67
2022/01/28 01:01:04;;;;;;;36.72;15.50;;;;;;;2.53;100.00;99948.03;5073719;28;20029;-67
2022/01/28 01:03:29;;;;;;;32.50;14.57;;;;;;;2.61;100.00;99952.63;5075045;28;20343;-67
2022/01/28 01:05:55;;;;;;;28.27;13.43;;;;;;;2.57;100.00;99958.56;5074807;28;20036;-67
2022/01/28 01:08:20;;;;;;;29.80;13.68;;;;;;;2.66;100.00;99961.44;5073457;28;20047;-67
2022/01/28 01:10:46;;;;;;;27.17;12.93;;;;;;;2.66;100.00;99964.03;5075153;28;20033;-67
2022/01/28 01:13:11;;;;;;;31.85;12.90;;;;;;;2.60;100.00;99958.69;5074236;28;20067;-67
2022/01/28 01:15:42;;;;;;;33.15;13.48;;;;;;;2.65;100.00;99954.50;5073023;28;20217;-67
2022/01/28 01:18:18;;;;;;;32.03;13.82;;;;;;;2.65;100.00;99972.69;5073796;28;20312;-67
2022/01/28 01:23:12;;;;;;;35.47;15.30;;;;;;;2.71;100.00;99967.69;5076416;28;20020;-67
2022/01/28 01:28:20;;;;;;;37.80;14.35;;;;;;;2.88;100.00;99984.72;5074115;28;20012;-67
2022/01/28 01:30:47;;;;;;;28.48;12.88;;;;;;;2.77;100.00;99983.50;5076446;28;20194;-67
2022/01/28 01:33:14;;;;;;;32.58;14.07;;;;;;;2.83;100.00;99978.50;5072127;28;20317;-67
2022/01/28 01:35:40;;;;;;;29.30;12.85;;;;;;;2.85;100.00;99989.81;5076016;28;20066;-67
2022/01/28 01:38:08;;;;;;;29.85;13.10;;;;;;;2.87;100.00;99995.97;5073790;28;20036;-67
2022/01/28 01:40:42;;;;;;;30.77;13.48;;;;;;;2.83;100.00;99996.69;5076579;28;20246;-67
2022/01/28 01:43:19;;;;;;;25.90;11.73;;;;;;;2.87;100.00;100006.34;5072869;28;20066;-67
2022/01/28 01:53:44;;;;;;;28.08;12.65;;;;;;;2.89;100.00;100009.91;5071295;28;20020;-67
2022/01/28 01:56:10;;;;;;;25.90;12.05;;;;;;;2.93;100.00;100021.28;5076766;28;20047;-67
2022/01/28 01:58:36;;;;;;;28.40;13.25;;;;;;;2.93;100.00;100021.28;5075056;28;20040;-67
2022/01/28 02:01:02;;;;;;;30.63;12.57;;;;;;;2.89;100.00;100024.59;5076959;28;20205;-67
2022/01/28 02:03:28;;;;;;;29.83;12.55;;;;;;;2.90;100.00;100027.25;5075231;28;20028;-67
2022/01/28 02:05:57;;;;;;;30.50;14.02;;;;;;;2.97;100.00;100039.63;5076095;28;20084;-67
2022/01/28 02:08:24;;;;;;;30.63;12.68;;;;;;;2.99;100.00;100030.16;5072058;28;20027;-67
2022/01/28 02:10:49;;;;;;;29.48;12.50;;;;;;;2.94;100.00;100023.91;5074481;28;20083;-67
2022/01/28 02:13:15;;;;;;;28.98;12.43;;;;;;;2.94;100.00;100017.84;5073047;28;20102;-67
2022/01/28 02:15:40;;;;;;;26.63;11.85;;;;;;;2.96;100.00;100027.47;5074328;28;20247;-67
2022/01/28 02:18:06;;;;;;;35.75;15.07;;;;;;;2.99;100.00;100032.78;5075433;28;20016;-67
2022/01/28 02:20:36;;;;;;;28.00;11.93;;;;;;;3.05;100.00;100032.97;5072649;28;20020;-67
2022/01/28 02:23:02;;;;;;;25.52;11.27;;;;;;;3.03;100.00;100029.41;5074548;28;20020;-67
2022/01/28 02:25:31;;;;;;;27.00;11.82;;;;;;;2.99;100.00;100031.88;5075234;28;20021;-67
2022/01/28 02:28:05;;;;;;;26.58;12.25;;;;;;;2.98;100.00;100036.22;5071106;28;20024;-67
2022/01/28 02:30:31;;;;;;;32.38;14.23;;;;;;;2.98;100.00;100033.63;5076968;28;20044;-67
2022/01/28 02:33:02;;;;;;;32.42;14.45;;;;;;;2.94;100.00;100036.91;5072721;28;20059;-67
2022/01/28 02:35:28;;;;;;;33.30;12.75;;;;;;;2.97;100.00;100033.56;5071940;28;20025;-67
2022/01/28 02:37:53;;;;;;;27.38;12.73;;;;;;;2.97;100.00;100033.56;5074904;28;20074;-67
2022/01/28 02:40:19;;;;;;;27.15;13.82;;;;;;;2.96;100.00;100034.38;5074518;28;20020;-67
2022/01/28 02:45:25;;;;;;;29.88;11.85;;;;;;;3.06;100.00;100032.13;5073501;28;20324;-67
2022/01/28 02:47:56;;;;;;;30.75;13.13;;;;;;;2.96;100.00;100032.66;5073664;28;20062;-67
2022/01/28 02:50:23;;;;;;;22.92;11.50;;;;;;;2.95;100.00;100030.91;5070498;28;20027;-67
2022/01/28 02:53:02;;;;;;;26.30;11.80;;;;;;;3.01;100.00;100044.09;5072749;28;20071;-67
2022/01/28 02:55:29;;;;;;;30.42;9.65;;;;;;;2.98;100.00;100041.41;5073064;28;20020;-67
2022/01/28 02:58:04;;;;;;;28.67;11.70;;;;;;;2.87;100.00;100042.75;5072823;28;20096;-67
2022/01/28 03:00:30;;;;;;;27.20;11.85;;;;;;;2.98;100.00;100041.41;5070058;28;20021;-67
2022/01/28 03:02:55;;;;;;;23.23;11.38;;;;;;;2.95;100.00;100041.31;5072637;28;20026;-67
2022/01/28 03:05:31;;;;;;;35.45;12.55;;;;;;;2.84;100.00;100039.16;5074129;28;20024;-67
2022/01/28 03:07:58;;;;;;;25.10;11.98;;;;;;;2.91;100.00;100042.00;5071099;28;20017;-67
2022/01/28 03:10:31;;;;;;;22.60;11.45;;;;;;;2.93;100.00;100048.16;5074505;28;20250;-67
2022/01/28 03:13:16;;;;;;;27.42;12.63;;;;;;;2.92;100.00;100051.63;5074163;28;20332;-67
2022/01/28 03:15:46;;;;;;;31.95;12.57;;;;;;;2.92;100.00;100041.22;5071845;28;20031;-67
2022/01/28 03:20:44;;;;;;;28.75;11.95;;;;;;;3.03;100.00;100050.22;5073435;28;20347;-67
2022/01/28 03:23:10;;;;;;;30.23;12.82;;;;;;;2.97;100.00;100050.03;5074957;28;20334;-67
2022/01/28 03:25:41;;;;;;;28.45;13.90;;;;;;;2.98;100.00;100044.00;5084732;28;20052;-67
2022/01/28 03:28:06;;;;;;;27.10;10.93;;;;;;;2.96;100.00;100053.47;5079410;28;20032;-67
2022/01/28 03:30:32;;;;;;;25.45;11.73;;;;;;;3.01;100.00;100051.88;5075972;28;20016;-67
2022/01/28 03:32:57;;;;;;;30.38;12.43;;;;;;;3.03;100.00;100060.63;5079555;28;20328;-67
2022/01/28 03:35:23;;;;;;;30.55;11.43;;;;;;;2.98;100.00;100067.41;5071938;28;20194;-67
2022/01/28 03:37:53;;;;;;;24.85;10.60;;;;;;;3.06;100.00;100068.53;5072138;28;20021;-67
2022/01/28 03:40:20;;;;;;;34.92;12.27;;;;;;;3.08;100.00;100069.50;5075142;28;20019;-67
2022/01/28 03:42:45;;;;;;;39.75;12.85;;;;;;;3.04;100.00;100072.78;5070242;28;20017;-67
2022/01/28 03:45:11;;;;;;;28.42;11.90;;;;;;;3.02;100.00;100078.78;5075962;28;20155;-67
2022/01/28 03:47:36;;;;;;;28.75;12.02;;;;;;;3.03;100.00;100081.44;5072244;28;20047;-67
2022/01/28 03:50:02;;;;;;;30.00;12.23;;;;;;;3.06;100.00;100091.94;5071819;28;20033;-67
2022/01/28 03:52:28;;;;;;;28.08;11.60;;;;;;;3.10;100.00;100088.59;5071434;28;20021;-67
2022/01/28 03:54:53;;;;;;;37.25;14.23;;;;;;;3.06;100.00;100083.25;5076482;28;20023;-67
2022/01/28 03:57:19;;;;;;;33.60;13.63;;;;;;;3.10;100.00;100088.59;5071613;28;20036;-67
2022/01/28 03:59:44;;;;;;;36.10;14.10;;;;;;;3.09;100.00;100092.06;5071958;28;20033;-67
2022/01/28 04:02:10;;;;;;;34.22;12.18;;;;;;;3.12;100.00;100099.06;5070709;28;20092;-67
2022/01/28 04:12:39;;;;;;;25.52;11.90;;;;;;;3.22;100.00;100098.53;5076036;28;20055;-67
2022/01/28 04:17:50;;;;;;;27.25;11.55;;;;;;;3.15;100.00;100093.97;5075194;28;19931;-67
2022/01/28 04:20:15;;;;;;;29.10;11.55;;;;;;;3.14;100.00;100098.31;5073367;28;20324;-67
2022/01/28 04:22:41;;;;;;;31.90;11.93;;;;;;;3.14;100.00;100100.00;5077754;28;20080;-67
2022/01/28 04:25:07;;;;;;;26.88;12.38;;;;;;;3.15;100.00;100092.25;5074926;28;20020;-67
2022/01/28 04:27:32;;;;;;;27.88;13.35;;;;;;;3.11;100.00;100089.50;5076129;28;20020;-67
2022/01/28 04:29:58;;;;;;;34.38;13.90;;;;;;;3.10;100.00;100092.94;5077123;28;20045;-67
2022/01/28 04:32:24;;;;;;;28.40;13.38;;;;;;;3.11;100.00;100081.69;5076787;28;20032;-67
2022/01/28 04:34:50;;;;;;;35.15;13.63;;;;;;;3.08;100.00;100090.28;5075511;28;20091;-67
2022/01/28 04:56:41;;;;;;;39.85;13.43;;;;;;;3.14;100.00;100108.72;5074253;28;20212;-67
2022/01/28 05:03:55;;;;;;;32.90;13.65;;;;;;;3.22;100.00;100130.66;5078968;28;20036;-67
2022/01/28 05:27:19;;;;;;;38.15;14.88;;;;;;;3.38;100.00;100169.34;5065174;28;20320;-67
2022/01/28 05:29:45;;;;;;;39.53;12.90;;;;;;;3.37;100.00;100154.56;5064725;28;20025;-67
2022/01/28 05:32:11;;;;;;;37.95;14.93;;;;;;;3.42;100.00;100155.59;5067553;28;20317;-67
2022/01/28 05:34:38;;;;;;;41.55;14.77;;;;;;;3.42;100.00;100155.59;5074223;28;20047;-67
2022/01/28 05:37:04;;;;;;;43.97;17.45;;;;;;;3.37;100.00;100154.56;5074397;28;20197;-67
2022/01/28 05:39:29;;;;;;;41.83;17.05;;;;;;;3.38;100.00;100151.13;5081858;28;20043;-66
2022/01/28 05:41:55;;;;;;;37.08;15.07;;;;;;;3.38;100.00;100158.94;5084967;28;20365;-66
2022/01/28 05:44:21;;;;;;;36.35;13.73;;;;;;;3.37;100.00;100162.38;5085402;28;20028;-67
2022/01/28 05:46:48;;;;;;;33.03;13.43;;;;;;;3.32;100.00;100166.53;5085345;28;20228;-67
2022/01/28 05:49:14;;;;;;;41.63;15.18;;;;;;;3.33;100.00;100178.75;5085568;28;20203;-67
2022/01/28 05:51:43;;;;;;;37.13;13.48;;;;;;;3.35;100.00;100178.78;5085516;28;20016;-67
2022/01/28 05:54:09;;;;;;;41.17;15.45;;;;;;;3.26;100.00;100171.53;5085457;28;20308;-67
2022/01/28 05:56:35;;;;;;;38.38;14.23;;;;;;;3.33;100.00;100178.75;5085042;28;20036;-67
2022/01/28 05:59:01;;;;;;;43.05;15.18;;;;;;;3.31;100.00;100188.19;5085108;28;20043;-67
2022/01/28 06:01:26;;;;;;;41.78;13.68;;;;;;;3.36;100.00;100186.63;5085109;28;20020;-67
2022/01/28 06:03:52;;;;;;;38.67;13.55;;;;;;;3.44;100.00;100185.19;5085072;28;20021;-67
2022/01/28 06:06:20;;;;;;;34.63;14.32;;;;;;;3.44;100.00;100186.88;5084957;28;20105;-67
2022/01/28 06:08:53;;;;;;;40.92;13.85;;;;;;;3.45;100.00;100186.06;5084940;28;20050;-67
2022/01/28 06:11:19;;;;;;;31.88;13.32;;;;;;;3.47;100.00;100186.97;5084897;28;20066;-67
2022/01/28 06:13:45;;;;;;;32.40;13.57;;;;;;;3.45;100.00;100184.34;5073764;28;20118;-67
2022/01/28 06:16:12;;;;;;;29.25;12.23;;;;;;;3.48;100.00;100175.75;5064981;28;20025;-67
2022/01/28 06:18:38;;;;;;;36.97;14.43;;;;;;;3.41;100.00;100182.47;5064994;28;20071;-67
2022/01/28 06:21:04;;;;;;;29.63;13.48;;;;;;;3.38;100.00;100179.75;5073510;28;20029;-67
2022/01/28 06:23:30;;;;;;;30.55;12.65;;;;;;;3.45;100.00;100181.72;5080213;28;20080;-67
2022/01/28 06:25:56;;;;;;;36.72;13.15;;;;;;;3.37;100.00;100178.00;5075578;28;20197;-67
2022/01/28 06:28:21;;;;;;;40.88;13.98;;;;;;;3.39;100.00;100175.44;5072774;28;20067;-67
2022/01/28 06:30:47;;;;;;;30.40;12.95;;;;;;;3.40;100.00;100166.81;5063864;28;20084;-67
2022/01/28 06:33:13;;;;;;;44.95;15.98;;;;;;;3.27;100.00;100170.72;5080923;28;20047;-67
2022/01/28 06:35:40;;;;;;;35.35;12.68;;;;;;;3.29;100.00;100184.66;5084664;28;20066;-67
2022/01/28 06:38:05;;;;;;;38.50;13.48;;;;;;;3.17;100.00;100184.25;5084258;28;20091;-67
2022/01/28 06:40:31;;;;;;;32.80;14.15;;;;;;;3.03;100.00;100193.28;5077851;28;20021;-67
2022/01/28 06:42:56;;;;;;;36.78;12.80;;;;;;;2.91;100.00;100198.03;5064281;28;20047;-67
2022/01/28 06:45:21;;;;;;;30.88;11.77;;;;;;;2.74;100.00;100193.06;5064271;28;20024;-67
2022/01/28 06:47:47;;;;;;;28.42;12.43;;;;;;;2.61;100.00;100202.16;5064206;28;20021;-67
2022/01/28 06:50:12;;;;;;;35.97;11.90;;;;;;;2.59;100.00;100203.81;5064187;28;20021;-67
2022/01/28 06:52:39;;;;;;;33.13;13.05;;;;;;;2.56;100.00;100203.69;5064134;28;20028;-67
2022/01/28 06:55:06;;;;;;;36.25;14.07;;;;;;;2.52;100.00;100207.00;5064123;28;20040;-67
2022/01/28 06:57:31;;;;;;;44.17;14.30;;;;;;;2.55;100.00;100209.72;5069974;28;20028;-67
2022/01/28 06:59:57;;;;;;;33.53;13.30;;;;;;;2.64;100.00;100210.06;5084118;28;20334;-67
2022/01/28 07:02:23;;;;;;;33.50;12.60;;;;;;;2.60;100.00;100212.50;5084066;28;20021;-67
2022/01/28 07:04:49;;;;;;;36.15;14.27;;;;;;;2.50;100.00;100211.25;5084022;28;20047;-67
2022/01/28 07:07:14;;;;;;;34.60;15.13;;;;;;;2.44;100.00;100230.94;5083986;28;20020;-67
2022/01/28 07:09:40;;;;;;;36.08;14.80;;;;;;;2.40;100.00;100234.25;5084012;28;20029;-67
2022/01/28 07:12:06;;;;;;;38.47;14.32;;;;;;;2.37;100.00;100228.94;5083824;28;20032;-67
2022/01/28 07:14:35;;;;;;;34.97;14.15;;;;;;;2.33;100.00;100243.50;5083881;28;20035;-67
2022/01/28 07:17:00;;;;;;;41.40;15.25;;;;;;;2.32;100.00;100236.56;5083904;28;20043;-67
2022/01/28 07:19:26;;;;;;;36.40;13.45;;;;;;;2.32;100.00;100239.16;5083915;28;20066;-67
2022/01/28 07:21:51;;;;;;;32.47;12.23;;;;;;;2.24;100.00;100249.25;5083881;28;20077;-67
2022/01/28 07:24:17;;;;;;;36.05;14.70;;;;;;;2.24;100.00;100253.53;5084042;28;20028;-67
2022/01/28 07:26:43;;;;;;;33.28;13.18;;;;;;;2.17;100.00;100267.13;5083801;28;20039;-67
2022/01/28 07:29:13;;;;;;;38.28;14.50;;;;;;;2.09;100.00;100268.56;5083796;28;20339;-67
2022/01/28 07:31:38;;;;;;;34.13;13.43;;;;;;;2.11;100.00;100261.69;5078286;28;20017;-67
2022/01/28 07:34:06;;;;;;;38.75;16.00;;;;;;;2.18;100.00;100264.59;5063628;28;20039;-67
2022/01/28 07:36:32;;;;;;;40.53;14.40;;;;;;;2.16;100.00;100270.56;5063814;28;20020;-67
2022/01/28 07:38:58;;;;;;;31.65;13.68;;;;;;;2.26;100.00;100272.69;5063649;28;20032;-67
2022/01/28 07:41:23;;;;;;;33.97;13.07;;;;;;;2.18;100.00;100274.97;5065612;28;20020;-67
2022/01/28 07:43:48;;;;;;;32.70;13.27;;;;;;;2.24;100.00;100289.91;5067653;28;20020;-67
2022/01/28 07:46:15;;;;;;;30.40;12.55;;;;;;;2.26;100.00;100298.66;5067593;28;20025;-67
2022/01/28 07:48:40;;;;;;;33.03;12.82;;;;;;;2.38;100.00;100287.88;5067584;28;20021;-67
2022/01/28 07:51:06;;;;;;;45.42;15.02;;;;;;;2.49;100.00;100292.66;5067834;28;20047;-67
2022/01/28 07:53:31;;;;;;;35.33;14.88;;;;;;;2.57;100.00;100311.16;5067554;28;20168;-67
2022/01/28 07:55:57;;;;;;;43.70;14.60;;;;;;;2.66;100.00;100306.31;5067486;28;20044;-67
2022/01/28 07:58:22;;;;;;;44.33;17.10;;;;;;;2.73;100.00;100313.50;5067798;28;20216;-66
2022/01/28 08:00:48;;;;;;;41.67;14.85;;;;;;;2.78;100.00;100323.25;5067336;28;20220;-66
2022/01/28 08:03:13;;;;;;;39.03;15.85;;;;;;;2.82;100.00;100322.56;5067356;28;20020;-66
2022/01/28 08:05:39;;;;;;;44.17;15.27;;;;;;;2.86;100.00;100316.63;5067550;28;20032;-66
2022/01/28 08:08:07;;;;;;;35.15;14.05;;;;;;;2.90;100.00;100321.09;5067227;28;20211;-66
2022/01/28 08:10:33;;;;;;;43.05;15.00;;;;;;;2.94;100.00;100330.78;5067400;28;20088;-66
2022/01/28 08:13:01;;;;;;;36.05;12.85;;;;;;;3.01;100.00;100335.38;5067060;28;20263;-67
2022/01/28 08:15:26;;;;;;;37.97;14.35;;;;;;;3.13;100.00;100340.19;5067096;28;20021;-67
2022/01/28 08:17:52;;;;;;;40.85;13.63;;;;;;;3.16;100.00;100343.75;5066976;28;20016;-67
2022/01/28 08:20:17;;;;;;;35.85;13.50;;;;;;;3.23;100.00;100350.97;5067024;28;20024;-67
2022/01/28 08:22:44;;;;;;;36.08;14.05;;;;;;;3.29;100.00;100348.59;5066946;28;20020;-67
2022/01/28 08:25:10;;;;;;;33.95;14.52;;;;;;;3.34;100.00;100349.66;5066819;28;20021;-67
2022/01/28 08:27:35;;;;;;;35.65;15.75;;;;;;;3.37;100.00;100354.97;5066923;28;20211;-67
2022/01/28 08:30:01;;;;;;;45.85;15.82;;;;;;;3.46;100.00;100350.09;5066835;28;20372;-67
2022/01/28 08:32:27;;;;;;;49.25;15.48;;;;;;;3.54;100.00;100359.06;5079138;28;20024;-67
2022/01/28 08:34:53;;;;;;;35.17;14.45;;;;;;;3.65;100.00;100352.53;5087032;28;20235;-67
2022/01/28 08:37:19;;;;;;;38.60;14.20;;;;;;;3.71;100.00;100342.34;5086629;28;20321;-67
2022/01/28 08:39:45;;;;;;;33.33;13.75;;;;;;;3.79;100.00;100346.06;5086653;28;20016;-67
2022/01/28 08:42:10;;;;;;;39.55;15.30;;;;;;;3.85;100.00;100346.28;5086626;28;20020;-67
2022/01/28 08:44:36;;;;;;;54.22;17.58;;;;;;;3.88;100.00;100348.09;5085453;28;20021;-67
2022/01/28 08:47:01;;;;;;;43.10;14.90;;;;;;;4.01;100.00;100339.84;5086549;28;20023;-67
2022/01/28 08:49:27;;;;;;;35.45;14.38;;;;;;;4.12;100.00;100352.41;5086503;28;20028;-67
2022/01/28 08:51:52;;;;;;;41.90;15.88;;;;;;;4.18;100.00;100356.97;5086741;28;20308;-67
2022/01/28 08:54:17;;;;;;;42.55;15.13;;;;;;;4.31;100.00;100356.53;5085728;28;20024;-67
2022/01/28 08:56:43;;;;;;;36.42;13.70;;;;;;;4.39;100.00;100350.72;5086272;28;20028;-67
2022/01/28 08:59:09;;;;;;;42.28;15.45;;;;;;;4.46;100.00;100355.28;5086267;28;20339;-67
2022/01/28 09:01:34;;;;;;;35.67;13.77;;;;;;;4.50;100.00;100359.75;5086330;28;20059;-67
2022/01/28 09:04:00;;;;;;;36.72;12.55;;;;;;;4.47;100.00;100359.66;5086235;28;20044;-67
2022/01/28 09:06:25;;;;;;;45.75;13.38;;;;;;;4.57;100.00;100362.56;5086220;28;20020;-67
2022/01/28 09:08:54;;;;;;;35.72;13.32;;;;;;;4.65;100.00;100363.69;5086143;28;20044;-67
2022/01/28 09:13:49;;;;;;;43.75;14.75;;;;;;;4.56;100.00;100366.00;5099220;28;20227;-67
2022/01/28 09:16:14;;;;;;;36.53;16.45;;;;;;;4.52;100.00;100366.75;5106510;28;20091;-67
2022/01/28 09:18:40;;;;;;;39.60;13.95;;;;;;;4.57;100.00;100373.00;5106159;28;20215;-67
2022/01/28 09:21:06;;;;;;;41.60;15.27;;;;;;;4.52;100.00;100385.00;5106214;28;20019;-67
2022/01/28 09:23:31;;;;;;;31.80;11.80;;;;;;;4.57;100.00;100391.25;5106138;28;20023;-67
2022/01/28 09:25:57;;;;;;;48.83;16.60;;;;;;;4.52;100.00;100385.00;5105991;28;20028;-67
2022/01/28 09:28:22;;;;;;;56.58;17.33;;;;;;;4.44;100.00;100388.22;5106162;28;20020;-67
2022/01/28 09:30:48;;;;;;;43.63;15.20;;;;;;;4.59;100.00;100392.19;5106257;28;20044;-67
2022/01/28 09:33:14;;;;;;;42.58;13.68;;;;;;;4.64;100.00;100390.59;5087092;28;20065;-67
2022/01/28 09:35:41;;;;;;;40.50;14.38;;;;;;;4.63;100.00;100394.06;5085641;28;20295;-67
2022/01/28 09:38:08;;;;;;;40.75;15.63;;;;;;;4.61;100.00;100396.59;5085551;28;20280;-67
2022/01/28 09:40:33;;;;;;;42.58;15.48;;;;;;;4.53;100.00;100397.19;5085488;28;20024;-67
2022/01/28 09:43:00;;;;;;;37.13;14.57;;;;;;;4.55;100.00;100404.22;5085521;28;20312;-67
2022/01/28 09:45:26;;;;;;;41.03;14.00;;;;;;;4.57;99.56;100409.50;5084960;28;20031;-67
2022/01/28 09:47:55;;;;;;;33.40;12.88;;;;;;;4.54;100.00;100412.91;5072414;28;20012;-67
2022/01/28 09:50:25;;;;;;;43.13;15.05;;;;;;;4.50;100.00;100413.66;5063527;28;20084;-67
2022/01/28 09:52:52;;;;;;;41.63;15.70;;;;;;;4.65;100.00;100408.03;5064896;28;20088;-67
2022/01/28 09:55:19;;;;;;;36.58;12.85;;;;;;;4.73;99.61;100422.19;5064310;28;20020;-67
2022/01/28 09:57:47;;;;;;;33.00;14.65;;;;;;;4.67;99.48;100422.00;5064149;28;20092;-67
2022/01/28 10:00:13;;;;;;;37.20;13.75;;;;;;;4.68;99.32;100429.88;5064436;28;20245;-67
2022/01/28 10:03:05;;;;;;;42.22;13.10;;;;;;;4.79;99.86;100432.81;5063669;28;20025;-67
2022/01/28 10:05:42;;;;;;;38.97;14.10;;;;;;;4.87;99.86;100431.38;5063414;28;20367;-67
2022/01/28 10:08:26;;;;;;;35.83;13.35;;;;;;;4.79;99.31;100427.59;5064065;28;20028;-67
2022/01/28 10:11:01;;;;;;;34.22;12.48;;;;;;;4.77;99.03;100435.38;5063987;28;20031;-67
2022/01/28 10:16:07;;;;;;;31.55;11.98;;;;;;;4.83;99.04;100429.47;5063498;28;20349;-66
2022/01/28 10:18:54;;;;;;;27.30;12.25;;;;;;;4.82;99.07;100430.31;5063981;28;20366;-66
2022/01/28 10:21:39;;;;;;;34.85;12.30;;;;;;;4.80;99.05;100430.25;5063806;28;20032;-66
2022/01/28 10:24:10;;;;;;;29.48;10.95;;;;;;;4.86;98.97;100429.56;5063687;28;20051;-66
2022/01/28 10:26:37;;;;;;;31.80;12.27;;;;;;;4.94;98.43;100428.09;5063687;28;20336;-66
2022/01/28 10:29:07;;;;;;;24.33;11.45;;;;;;;4.99;98.37;100431.72;5063210;28;20048;-66
2022/01/28 10:31:45;;;;;;;26.30;11.27;;;;;;;4.94;97.88;100428.09;5068440;28;20016;-66
2022/01/28 10:34:11;;;;;;;33.63;12.77;;;;;;;4.98;98.24;100429.97;5084895;28;20025;-67
2022/01/28 10:36:37;;;;;;;26.98;11.43;;;;;;;5.00;98.25;100428.28;5077232;28;20027;-67
2022/01/28 10:39:03;;;;;;;30.42;11.18;;;;;;;4.98;98.21;100432.56;5065649;28;20099;-67
2022/01/28 10:41:29;;;;;;;31.25;12.88;;;;;;;4.97;97.80;100428.19;5083018;28;20027;-67
2022/01/28 10:43:57;;;;;;;27.13;10.70;;;;;;;5.13;98.22;100430.44;5077213;28;20217;-67
2022/01/28 10:46:34;;;;;;;23.25;10.07;;;;;;;5.21;97.96;100418.50;5063371;28;20043;-67
2022/01/28 10:49:02;;;;;;;31.15;12.02;;;;;;;5.21;98.52;100421.09;5063330;28;20052;-67
2022/01/28 10:51:47;;;;;;;34.72;11.85;;;;;;;5.16;98.33;100420.09;5063255;28;20324;-67
2022/01/28 10:54:18;;;;;;;40.80;11.13;;;;;;;5.13;98.01;100431.34;5063024;28;20016;-67
2022/01/28 10:56:55;;;;;;;33.40;12.82;;;;;;;5.14;97.93;100434.81;5063124;28;20036;-67
2022/01/28 10:59:26;;;;;;;28.30;11.23;;;;;;;5.17;98.24;100437.53;5063155;28;20027;-67
2022/01/28 11:01:52;;;;;;;35.42;12.27;;;;;;;5.19;97.90;100435.84;5063194;28;20047;-67
2022/01/28 11:04:19;;;;;;;25.55;10.05;;;;;;;5.21;97.27;100428.94;5063087;28;20033;-67
2022/01/28 11:06:47;;;;;;;27.88;10.95;;;;;;;5.18;98.20;100423.63;5061712;28;20336;-67
2022/01/28 11:09:14;;;;;;;28.17;11.75;;;;;;;5.36;98.13;100425.06;5066586;28;20204;-67
2022/01/28 11:11:41;;;;;;;27.05;10.95;;;;;;;5.39;97.86;100430.38;5082907;28;20028;-67
2022/01/28 11:14:06;;;;;;;28.83;11.13;;;;;;;5.47;98.05;100430.63;5083059;28;20028;-67
2022/01/28 11:16:33;;;;;;;28.85;11.65;;;;;;;5.50;97.25;100423.75;5082871;28;20366;-67
2022/01/28 11:18:59;;;;;;;30.92;12.45;;;;;;;5.50;96.94;100422.84;5075705;28;20216;-67
2022/01/28 11:21:38;;;;;;;39.95;12.25;;;;;;;5.37;96.22;100425.94;5062494;28;20025;-67
2022/01/28 11:24:22;;;;;;;22.50;10.43;;;;;;;5.21;96.91;100421.09;5062769;28;20236;-67
2022/01/28 11:26:59;;;;;;;26.63;10.73;;;;;;;5.22;96.85;100417.69;5062805;28;20021;-67
2022/01/28 11:29:28;;;;;;;27.25;11.05;;;;;;;5.26;97.35;100422.13;5062800;28;20028;-67
2022/01/28 11:31:56;;;;;;;24.63;11.18;;;;;;;5.33;97.10;100411.94;5062741;28;20021;-67
2022/01/28 11:34:21;;;;;;;28.73;11.40;;;;;;;5.40;97.05;100418.19;5062373;28;20029;-67
2022/01/28 11:36:47;;;;;;;28.58;11.45;;;;;;;5.45;97.18;100422.75;5062662;28;20239;-67
2022/01/28 11:39:33;;;;;;;33.70;12.75;;;;;;;5.40;97.17;100415.59;5062714;28;20071;-67
2022/01/28 11:42:11;;;;;;;32.28;10.93;;;;;;;5.39;97.29;100416.44;5062958;28;20216;-67
2022/01/28 11:44:51;;;;;;;31.38;12.40;;;;;;;5.37;97.54;100405.06;5076857;28;20335;-67
2022/01/28 11:47:29;;;;;;;30.25;12.00;;;;;;;5.46;96.98;100394.88;5074713;28;20212;-67
2022/01/28 11:50:19;;;;;;;29.30;10.95;;;;;;;5.37;96.69;100402.44;5069093;28;20323;-67
2022/01/28 11:52:46;;;;;;;34.42;11.30;;;;;;;5.26;97.28;100393.41;5071797;28;20028;-67
2022/01/28 11:55:14;;;;;;;30.05;12.65;;;;;;;5.35;97.62;100397.16;5076601;28;20036;-67
2022/01/28 11:58:05;;;;;;;34.63;12.07;;;;;;;5.38;97.42;100385.97;5070792;28;20044;-67
2022/01/28 12:00:44;;;;;;;31.58;11.70;;;;;;;5.52;96.70;100389.84;5069901;28;20200;-67
2022/01/28 12:03:18;;;;;;;27.50;10.52;;;;;;;5.58;96.57;100384.78;5075974;28;20317;-67
2022/01/28 12:05:43;;;;;;;32.47;12.57;;;;;;;5.51;96.67;100378.50;5067066;28;20351;-67
2022/01/28 12:08:10;;;;;;;24.77;11.10;;;;;;;5.54;96.90;100382.94;5075971;28;20012;-67
2022/01/28 12:10:42;;;;;;;28.80;11.88;;;;;;;5.66;96.93;100383.28;5068933;28;20020;-67
2022/01/28 12:13:12;;;;;;;27.48;10.77;;;;;;;5.74;96.51;100371.31;5072095;28;20616;-67
2022/01/28 12:16:01;;;;;;;30.95;13.07;;;;;;;5.62;96.97;100373.56;5069582;28;20100;-67
2022/01/28 12:18:56;;;;;;;27.08;10.45;;;;;;;5.71;97.29;100379.06;5078436;28;20020;-67
2022/01/28 12:21:27;;;;;;;28.30;12.00;;;;;;;5.88;97.62;100375.19;5072779;28;20048;-67
2022/01/28 12:24:14;;;;;;;26.67;12.00;;;;;;;5.88;97.24;100378.69;5062335;28;20063;-67
2022/01/28 12:27:04;;;;;;;28.05;11.02;;;;;;;6.01;96.63;100377.31;5075884;28;20220;-67
2022/01/28 12:29:31;;;;;;;30.73;11.98;;;;;;;5.87;96.89;100376.06;5085475;28;20031;-67
2022/01/28 12:31:58;;;;;;;35.78;12.20;;;;;;;5.99;97.22;100379.00;5085900;28;20374;-67
2022/01/28 12:34:25;;;;;;;29.63;11.75;;;;;;;6.12;96.56;100383.69;5085900;28;20020;-67
2022/01/28 12:36:50;;;;;;;32.13;13.30;;;;;;;6.02;96.57;100384.31;5085780;28;20025;-67
2022/01/28 12:39:32;;;;;;;28.67;12.20;;;;;;;6.04;96.41;100393.94;5067612;28;20023;-67
2022/01/28 12:42:41;;;;;;;35.92;11.40;;;;;;;6.06;95.95;100387.03;5070385;28;20056;-67
2022/01/28 12:44:53;;;;;;;22.48;10.10;;;;;;;5.95;95.64;100385.84;5072125;28;20032;-67
2022/01/28 12:47:18;;;;;;;31.58;10.15;;;;;;;5.92;95.31;100387.53;5085234;28;20091;-67
2022/01/28 12:49:46;;;;;;;27.75;12.05;;;;;;;5.86;94.92;100382.13;5086907;28;20059;-67
2022/01/28 12:52:12;;;;;;;26.52;11.70;;;;;;;5.63;95.01;100383.19;5097838;28;20028;-67
2022/01/28 12:54:41;;;;;;;33.47;12.18;;;;;;;5.52;95.25;100389.84;5079453;28;20021;-67
2022/01/28 12:57:17;;;;;;;30.50;11.18;;;;;;;5.47;95.61;100396.66;5076271;28;20008;-67
2022/01/28 12:59:47;;;;;;;22.25;10.80;;;;;;;5.42;95.33;100393.03;5074194;28;20035;-67